Time;durP1;ratioP1;P1;durP2;ratioP2;P2;SDS_P1;SDS_P2;PMS_P1;PMS_P2;Temp;Humidity;BMP_temperature;BMP_pressure;BME280_temperature;BME280_humidity;BME280_pressure;Samples;Min_cycle;Max_cycle;Signal;HPM_P1;HPM_P2
2024/03/05 00:01:19;;;;;;;36.53;23.90;;;16.10;57.60;;;;;;5055161;28;20271;-60
2024/03/05 00:03:45;;;;;;;32.80;23.13;;;16.10;57.60;;;;;;5044828;28;20185;-59
2024/03/05 00:06:11;;;;;;;32.10;23.70;;;16.20;57.60;;;;;;5044236;28;20208;-60
2024/03/05 00:08:37;;;;;;;35.87;22.90;;;16.20;57.50;;;;;;5054975;28;20185;-60
2024/03/05 00:11:04;;;;;;;38.77;24.83;;;16.20;57.50;;;;;;5047514;28;20446;-60
2024/03/05 00:13:29;;;;;;;35.40;24.23;;;16.20;57.50;;;;;;5041778;28;20220;-60
2024/03/05 00:15:55;;;;;;;38.50;25.33;;;16.20;57.50;;;;;;5052500;28;20462;-60
2024/03/05 00:18:20;;;;;;;37.17;24.40;;;16.10;57.60;;;;;;5053636;28;20212;-59
2024/03/05 00:20:46;;;;;;;37.20;23.80;;;16.10;57.60;;;;;;5052995;28;20193;-61
2024/03/05 00:23:12;;;;;;;32.07;22.43;;;16.10;57.80;;;;;;5052229;28;20188;-60
2024/03/05 00:25:42;;;;;;;39.00;26.47;;;16.20;57.80;;;;;;5047283;28;20454;-60
2024/03/05 00:28:07;;;;;;;34.87;24.33;;;16.20;57.60;;;;;;5043174;28;20581;-59
2024/03/05 00:30:33;;;;;;;35.97;25.20;;;16.10;57.70;;;;;;5043100;28;20436;-59
2024/03/05 00:32:59;;;;;;;32.00;23.10;;;16.10;58.00;;;;;;5044861;28;20185;-60
2024/03/05 00:35:24;;;;;;;42.23;25.63;;;16.10;58.20;;;;;;5052689;28;20423;-61
2024/03/05 00:37:50;;;;;;;36.97;23.77;;;16.10;58.10;;;;;;5050418;28;20657;-60
2024/03/05 00:40:16;;;;;;;33.93;22.10;;;16.10;57.80;;;;;;5055375;28;20192;-59
2024/03/05 00:42:42;;;;;;;37.77;22.70;;;16.10;58.10;;;;;;5054310;28;20188;-61
2024/03/05 00:45:08;;;;;;;37.07;23.50;;;16.10;58.20;;;;;;5058325;28;20933;-58
2024/03/05 00:47:35;;;;;;;35.70;23.60;;;16.10;57.90;;;;;;5053257;28;20240;-60
2024/03/05 00:50:03;;;;;;;33.20;22.83;;;16.20;58.00;;;;;;5046455;28;20435;-60
2024/03/05 00:52:30;;;;;;;31.03;22.93;;;16.20;57.70;;;;;;5044866;28;20447;-59
2024/03/05 00:54:57;;;;;;;33.70;23.03;;;16.30;57.50;;;;;;5043741;28;20464;-60
2024/03/05 00:57:23;;;;;;;41.00;23.77;;;16.30;57.40;;;;;;5040503;28;20498;-60
2024/03/05 00:59:48;;;;;;;32.97;23.30;;;16.30;57.30;;;;;;5044896;28;20934;-60
2024/03/05 01:02:14;;;;;;;32.33;23.07;;;16.40;57.30;;;;;;5050449;28;20269;-60
2024/03/05 01:04:40;;;;;;;36.00;24.97;;;16.40;57.30;;;;;;5053972;28;20176;-60
2024/03/05 01:07:06;;;;;;;32.40;22.40;;;16.30;57.40;;;;;;5060158;28;20874;-60
2024/03/05 01:09:31;;;;;;;40.60;25.27;;;16.40;57.30;;;;;;5054129;28;20308;-59
2024/03/05 01:11:57;;;;;;;37.83;24.30;;;16.40;57.20;;;;;;5061073;28;21144;-60
2024/03/05 01:14:23;;;;;;;36.13;23.60;;;16.40;57.00;;;;;;5053467;28;20267;-61
2024/03/05 01:16:49;;;;;;;38.27;24.60;;;16.40;57.00;;;;;;5059514;28;20223;-60
2024/03/05 01:19:15;;;;;;;37.00;23.77;;;16.50;57.00;;;;;;5051723;28;20996;-60
2024/03/05 01:21:41;;;;;;;38.83;23.50;;;16.50;56.90;;;;;;5058457;28;20264;-60
2024/03/05 01:24:09;;;;;;;38.37;24.20;;;16.40;57.00;;;;;;5058003;28;20643;-59
2024/03/05 01:26:38;;;;;;;43.57;25.60;;;16.50;57.30;;;;;;5057047;28;20201;-60
2024/03/05 01:29:05;;;;;;;37.10;26.10;;;16.60;57.10;;;;;;5061853;28;20431;-60
2024/03/05 01:31:32;;;;;;;39.30;25.70;;;16.60;56.80;;;;;;5052140;28;20496;-58
2024/03/05 01:33:57;;;;;;;41.57;27.50;;;16.70;56.50;;;;;;5052235;28;20505;-60
2024/03/05 01:36:25;;;;;;;40.30;26.87;;;16.80;56.30;;;;;;5050013;28;20562;-61
2024/03/05 01:38:51;;;;;;;35.37;25.30;;;16.80;56.20;;;;;;5057401;28;21083;-59
2024/03/05 01:41:17;;;;;;;34.47;23.00;;;16.80;56.30;;;;;;5046471;28;20434;-61
2024/03/05 01:43:43;;;;;;;42.20;25.37;;;16.80;56.30;;;;;;5056562;28;20403;-61
2024/03/05 01:46:10;;;;;;;36.90;26.20;;;16.80;56.10;;;;;;5059827;28;20433;-61
2024/03/05 01:48:36;;;;;;;37.10;25.27;;;16.80;56.20;;;;;;5051972;28;20181;-61
2024/03/05 01:51:02;;;;;;;40.90;25.63;;;16.90;56.20;;;;;;5044498;28;20433;-60
2024/03/05 01:53:28;;;;;;;39.53;25.27;;;16.90;56.20;;;;;;5046038;28;20415;-61
2024/03/05 01:55:55;;;;;;;37.73;25.27;;;16.80;56.00;;;;;;5051824;28;20194;-61
2024/03/05 01:58:21;;;;;;;40.17;25.20;;;16.90;56.10;;;;;;5055131;28;20907;-61
2024/03/05 02:00:47;;;;;;;37.40;24.87;;;16.90;56.10;;;;;;5053713;28;20434;-61
2024/03/05 02:03:13;;;;;;;35.47;23.30;;;16.90;55.80;;;;;;5052318;28;20433;-59
2024/03/05 02:05:42;;;;;;;40.83;26.43;;;16.90;55.80;;;;;;5050156;28;20189;-60
2024/03/05 02:08:08;;;;;;;37.60;26.67;;;16.90;56.00;;;;;;5047016;28;20591;-61
2024/03/05 02:10:34;;;;;;;39.93;25.27;;;16.90;55.60;;;;;;5046616;28;20550;-61
2024/03/05 02:13:00;;;;;;;41.83;27.60;;;16.90;55.70;;;;;;5058206;28;20262;-61
2024/03/05 02:15:25;;;;;;;41.47;25.57;;;16.90;55.90;;;;;;5055021;28;20830;-61
2024/03/05 02:17:51;;;;;;;40.70;27.43;;;16.90;55.80;;;;;;5056459;28;20255;-61
2024/03/05 02:20:17;;;;;;;41.43;25.57;;;17.00;55.70;;;;;;5055054;28;20194;-60
2024/03/05 02:22:43;;;;;;;40.63;25.60;;;16.90;55.60;;;;;;5059482;28;20184;-60
2024/03/05 02:25:09;;;;;;;42.27;26.77;;;16.90;55.80;;;;;;5060078;28;20180;-60
2024/03/05 02:27:40;;;;;;;39.40;26.80;;;16.90;56.00;;;;;;5052011;28;21057;-59
2024/03/05 02:30:10;;;;;;;46.53;27.17;;;17.00;55.90;;;;;;5058861;28;20430;-58
2024/03/05 02:32:40;;;;;;;40.03;25.33;;;16.90;55.60;;;;;;5059035;28;20415;-60
2024/03/05 02:35:10;;;;;;;33.93;23.83;;;17.00;55.60;;;;;;5057986;28;20484;-60
2024/03/05 02:37:40;;;;;;;40.70;24.53;;;17.00;55.50;;;;;;5057881;28;20510;-60
2024/03/05 02:40:08;;;;;;;49.53;26.87;;;17.00;55.50;;;;;;5055314;28;20427;-60
2024/03/05 02:42:34;;;;;;;41.13;25.23;;;16.90;55.40;;;;;;5056794;28;20431;-59
2024/03/05 02:45:00;;;;;;;40.07;26.57;;;16.90;55.60;;;;;;5050583;28;20424;-59
2024/03/05 02:47:25;;;;;;;41.13;26.67;;;16.80;55.60;;;;;;5050889;28;20518;-59
2024/03/05 02:49:51;;;;;;;41.17;27.23;;;16.90;55.80;;;;;;5055405;28;20272;-60
2024/03/05 02:52:16;;;;;;;39.07;26.80;;;16.90;55.80;;;;;;5047114;28;20193;-60
2024/03/05 02:54:42;;;;;;;42.80;27.87;;;16.90;55.70;;;;;;5056975;28;20307;-59
2024/03/05 02:57:08;;;;;;;35.30;25.13;;;17.00;55.80;;;;;;5052600;28;20242;-59
2024/03/05 02:59:34;;;;;;;39.73;26.57;;;17.00;55.80;;;;;;5053296;28;20181;-60
2024/03/05 03:02:00;;;;;;;34.33;24.53;;;17.10;55.80;;;;;;5056080;28;20432;-59
2024/03/05 03:04:26;;;;;;;36.70;23.43;;;17.10;55.60;;;;;;5051106;28;20188;-60
2024/03/05 03:06:52;;;;;;;38.77;24.90;;;17.00;55.60;;;;;;5050576;28;20525;-60
2024/03/05 03:09:17;;;;;;;39.60;24.83;;;16.90;55.70;;;;;;5047312;28;20215;-59
2024/03/05 03:11:47;;;;;;;36.00;24.07;;;16.90;55.90;;;;;;5051283;28;20438;-60
2024/03/05 03:14:13;;;;;;;39.20;27.10;;;16.90;56.20;;;;;;5058923;28;20275;-60
2024/03/05 03:16:40;;;;;;;34.50;23.43;;;16.90;56.10;;;;;;5058508;28;20606;-61
2024/03/05 03:19:05;;;;;;;37.80;24.20;;;16.90;56.10;;;;;;5044337;28;20199;-59
2024/03/05 03:21:31;;;;;;;35.70;24.30;;;16.90;56.30;;;;;;5056875;28;20938;-59
2024/03/05 03:23:57;;;;;;;37.63;25.70;;;17.00;56.30;;;;;;5053023;28;20182;-60
2024/03/05 03:26:23;;;;;;;38.73;26.30;;;16.90;56.20;;;;;;5048271;28;20197;-60
2024/03/05 03:28:49;;;;;;;46.87;27.67;;;17.00;56.10;;;;;;5055922;28;20242;-60
2024/03/05 03:31:15;;;;;;;39.90;25.60;;;16.90;56.10;;;;;;5052013;28;20435;-60
2024/03/05 03:33:40;;;;;;;40.13;27.10;;;16.80;56.00;;;;;;5056849;28;20185;-60
2024/03/05 03:36:06;;;;;;;36.97;22.60;;;16.80;56.50;;;;;;5045251;28;20216;-59
2024/03/05 03:38:34;;;;;;;40.37;23.73;;;16.80;56.90;;;;;;5059276;28;20212;-61
2024/03/05 03:41:00;;;;;;;38.13;25.20;;;16.80;56.80;;;;;;5041105;28;20184;-60
2024/03/05 03:43:25;;;;;;;38.40;22.70;;;16.90;56.70;;;;;;5043247;28;20443;-59
2024/03/05 03:45:52;;;;;;;45.27;28.43;;;17.00;56.50;;;;;;5045510;28;20192;-60
2024/03/05 03:48:17;;;;;;;41.07;25.63;;;17.00;56.20;;;;;;5043980;28;20197;-60
2024/03/05 03:50:43;;;;;;;39.87;26.30;;;17.00;56.20;;;;;;5036841;28;20447;-60
2024/03/05 03:53:10;;;;;;;37.67;26.00;;;16.90;56.00;;;;;;5041441;28;20185;-60
2024/03/05 03:55:36;;;;;;;36.43;24.57;;;16.90;55.90;;;;;;5054050;28;20445;-61
2024/03/05 03:58:04;;;;;;;40.60;26.10;;;16.70;56.10;;;;;;5046457;28;21094;-58
2024/03/05 04:00:29;;;;;;;46.40;27.80;;;16.70;56.40;;;;;;5053672;28;20435;-61
2024/03/05 04:02:55;;;;;;;40.50;26.27;;;16.70;56.30;;;;;;5059101;28;20426;-60
2024/03/05 04:05:21;;;;;;;39.17;25.90;;;16.70;56.30;;;;;;5048611;28;20259;-59
2024/03/05 04:07:46;;;;;;;43.70;26.40;;;16.80;56.30;;;;;;5055401;28;20746;-58
2024/03/05 04:10:12;;;;;;;43.77;26.63;;;16.70;56.20;;;;;;5049319;28;20193;-61
2024/03/05 04:12:41;;;;;;;43.10;26.43;;;16.60;56.30;;;;;;5054546;28;20294;-61
2024/03/05 04:15:12;;;;;;;39.23;26.70;;;16.70;56.50;;;;;;5056350;28;20439;-58
2024/03/05 04:17:37;;;;;;;40.47;26.67;;;16.80;56.50;;;;;;5055239;28;20511;-61
2024/03/05 04:20:05;;;;;;;41.67;27.53;;;16.80;56.30;;;;;;5053846;28;20487;-60
2024/03/05 04:22:31;;;;;;;39.33;27.07;;;16.80;56.20;;;;;;5054102;28;20252;-58
2024/03/05 04:24:57;;;;;;;38.20;24.87;;;16.80;56.30;;;;;;5050503;28;20433;-60
2024/03/05 04:27:24;;;;;;;39.17;24.67;;;16.80;56.30;;;;;;5057961;28;20204;-60
2024/03/05 04:29:57;;;;;;;42.23;25.27;;;16.80;56.20;;;;;;5056879;28;20195;-61
2024/03/05 04:32:29;;;;;;;42.03;26.70;;;16.80;56.20;;;;;;5046957;28;20439;-60
2024/03/05 04:35:00;;;;;;;39.17;26.27;;;16.70;56.20;;;;;;5051740;28;20434;-61
2024/03/05 04:37:29;;;;;;;42.10;26.23;;;16.70;56.20;;;;;;5049940;28;20489;-60
2024/03/05 04:39:54;;;;;;;41.93;26.93;;;16.70;56.70;;;;;;5048155;28;20447;-58
2024/03/05 04:42:22;;;;;;;40.40;27.30;;;16.70;56.30;;;;;;5052631;28;20447;-59
2024/03/05 04:44:47;;;;;;;45.63;26.93;;;16.60;56.30;;;;;;5040334;28;20185;-62
2024/03/05 04:47:13;;;;;;;40.10;25.97;;;16.60;56.40;;;;;;5039604;28;21054;-60
2024/03/05 04:49:39;;;;;;;41.63;25.70;;;16.60;56.50;;;;;;5044567;28;20193;-59
2024/03/05 04:52:04;;;;;;;46.03;28.07;;;16.60;56.50;;;;;;5043950;28;20858;-58
2024/03/05 04:54:30;;;;;;;41.83;28.00;;;16.60;56.40;;;;;;5039317;28;20268;-60
2024/03/05 04:56:56;;;;;;;45.47;27.50;;;16.60;56.30;;;;;;5044404;28;20231;-59
2024/03/05 04:59:23;;;;;;;40.93;26.50;;;16.60;56.30;;;;;;5040444;28;20177;-60
2024/03/05 05:01:48;;;;;;;40.40;26.27;;;16.60;56.30;;;;;;5036270;28;20445;-60
2024/03/05 05:04:14;;;;;;;42.93;26.57;;;16.60;56.40;;;;;;5049985;28;20438;-60
2024/03/05 05:06:39;;;;;;;41.93;27.03;;;16.50;56.30;;;;;;5045727;28;20297;-59
2024/03/05 05:09:05;;;;;;;44.53;27.33;;;16.50;56.50;;;;;;5059748;28;20195;-59
2024/03/05 05:11:32;;;;;;;44.97;28.57;;;16.40;56.60;;;;;;5045752;28;20676;-59
2024/03/05 05:13:58;;;;;;;42.70;26.37;;;16.30;56.80;;;;;;5043842;28;20445;-60
2024/03/05 05:16:24;;;;;;;43.03;25.97;;;16.30;57.10;;;;;;5049339;28;20550;-60
2024/03/05 05:18:50;;;;;;;46.10;27.37;;;16.20;57.20;;;;;;5052098;28;21343;-59
2024/03/05 05:21:16;;;;;;;40.70;27.20;;;16.00;57.50;;;;;;5050754;28;20204;-60
2024/03/05 05:23:42;;;;;;;45.87;28.60;;;16.00;57.60;;;;;;5059394;28;20839;-59
2024/03/05 05:26:08;;;;;;;44.17;28.70;;;15.90;57.70;;;;;;5054398;28;20200;-61
2024/03/05 05:28:34;;;;;;;42.63;26.37;;;16.00;58.00;;;;;;5043563;28;20192;-60
2024/03/05 05:30:59;;;;;;;45.40;27.67;;;16.00;57.90;;;;;;5050290;28;21174;-60
2024/03/05 05:33:25;;;;;;;44.50;26.33;;;16.10;57.80;;;;;;5039651;28;20203;-60
2024/03/05 05:35:51;;;;;;;41.43;28.23;;;16.10;57.70;;;;;;5052762;28;20196;-60
2024/03/05 05:38:16;;;;;;;40.90;25.57;;;16.30;57.90;;;;;;5045199;28;20714;-60
2024/03/05 05:40:43;;;;;;;39.23;27.30;;;16.30;57.70;;;;;;5050324;28;20184;-60
2024/03/05 05:43:09;;;;;;;41.70;27.70;;;16.40;57.40;;;;;;5053540;28;20533;-61
2024/03/05 05:45:35;;;;;;;38.90;28.07;;;16.50;57.10;;;;;;5046226;28;20431;-60
2024/03/05 05:48:02;;;;;;;46.83;29.37;;;16.50;56.90;;;;;;5045233;28;20532;-60
2024/03/05 05:50:31;;;;;;;42.37;27.40;;;16.60;56.90;;;;;;5043291;28;20287;-60
2024/03/05 05:52:57;;;;;;;43.90;29.27;;;16.50;56.80;;;;;;5042388;28;20458;-60
2024/03/05 05:55:27;;;;;;;39.77;27.80;;;16.40;56.90;;;;;;5045347;28;21016;-60
2024/03/05 05:57:53;;;;;;;42.27;28.60;;;16.40;57.10;;;;;;5051235;28;20485;-61
2024/03/05 06:00:35;;;;;;;45.73;30.43;;;16.40;57.30;;;;;;5040234;28;20518;-60
2024/03/05 06:03:03;;;;;;;40.77;25.40;;;16.50;57.40;;;;;;5045399;28;20859;-61
2024/03/05 06:05:31;;;;;;;39.23;25.53;;;16.60;57.20;;;;;;5047012;28;20447;-60
2024/03/05 06:07:59;;;;;;;37.17;26.63;;;16.60;57.00;;;;;;5049332;28;20463;-60
2024/03/05 06:10:24;;;;;;;44.00;27.90;;;16.60;57.20;;;;;;5039519;28;20476;-60
2024/03/05 06:12:51;;;;;;;38.67;27.87;;;16.70;57.00;;;;;;5045303;28;20867;-60
2024/03/05 06:15:19;;;;;;;44.63;29.10;;;16.70;56.90;;;;;;5043813;28;20577;-59
2024/03/05 06:17:46;;;;;;;41.10;27.20;;;16.70;56.90;;;;;;5046309;28;20528;-61
2024/03/05 06:20:13;;;;;;;42.23;27.97;;;16.80;57.10;;;;;;5052356;28;20447;-62
2024/03/05 06:22:39;;;;;;;37.20;25.23;;;16.80;56.70;;;;;;5055979;28;20910;-61
2024/03/05 06:25:09;;;;;;;53.83;28.03;;;16.80;56.40;;;;;;5056652;28;20793;-61
2024/03/05 06:27:36;;;;;;;38.17;24.10;;;16.70;56.60;;;;;;5048611;28;20447;-61
2024/03/05 06:30:04;;;;;;;41.23;26.23;;;16.70;56.80;;;;;;5048573;28;20467;-61
2024/03/05 06:32:30;;;;;;;39.90;26.30;;;16.60;56.90;;;;;;5056134;28;20438;-61
2024/03/05 06:34:56;;;;;;;38.60;25.23;;;16.60;57.10;;;;;;5048622;28;20424;-62
2024/03/05 06:37:21;;;;;;;37.63;25.87;;;16.50;57.10;;;;;;5046486;28;20478;-60
2024/03/05 06:39:47;;;;;;;41.50;25.23;;;16.50;57.20;;;;;;5046433;28;20177;-61
2024/03/05 06:42:13;;;;;;;41.87;24.93;;;16.40;57.20;;;;;;5043946;28;20722;-60
2024/03/05 06:44:47;;;;;;;44.17;27.37;;;16.30;57.30;;;;;;5044381;28;20196;-61
2024/03/05 06:47:16;;;;;;;38.63;25.97;;;16.30;57.50;;;;;;5051423;28;20457;-58
2024/03/05 06:49:43;;;;;;;40.90;26.03;;;16.10;57.80;;;;;;5042460;28;20454;-61
2024/03/05 06:57:37;;;;;;;39.67;24.80;;;16.10;58.80;;;;;;5050416;28;20574;-61
2024/03/05 07:00:15;;;;;;;41.53;27.40;;;16.00;58.60;;;;;;5062017;28;20513;-61
2024/03/05 07:02:43;;;;;;;45.17;26.30;;;16.00;58.60;;;;;;5058632;28;20319;-60
2024/03/05 07:05:09;;;;;;;45.03;27.33;;;16.00;58.60;;;;;;5056729;28;20929;-59
2024/03/05 07:07:34;;;;;;;38.83;24.73;;;15.90;58.70;;;;;;5057350;28;20458;-61
2024/03/05 07:10:00;;;;;;;40.50;25.60;;;15.80;59.10;;;;;;5060008;28;20204;-60
2024/03/05 07:12:26;;;;;;;39.80;26.40;;;15.90;59.40;;;;;;5058982;28;20612;-60
2024/03/05 07:14:52;;;;;;;39.50;25.80;;;15.90;59.40;;;;;;5059293;28;20207;-60
2024/03/05 07:17:20;;;;;;;40.67;25.60;;;15.80;59.50;;;;;;5059022;28;20482;-60
2024/03/05 07:19:46;;;;;;;41.20;26.70;;;15.80;59.50;;;;;;5061559;28;20189;-60
2024/03/05 07:22:11;;;;;;;43.17;26.27;;;15.80;59.40;;;;;;5052028;28;20488;-60
2024/03/05 07:24:37;;;;;;;45.00;27.00;;;15.70;59.50;;;;;;5059365;28;20431;-60
2024/03/05 07:27:03;;;;;;;38.87;23.37;;;15.60;60.20;;;;;;5053797;28;20209;-60
2024/03/05 07:29:29;;;;;;;41.50;25.60;;;15.60;59.60;;;;;;5052357;28;20641;-57
2024/03/05 07:31:55;;;;;;;38.10;23.20;;;15.60;59.70;;;;;;5051523;28;20434;-60
2024/03/05 07:34:20;;;;;;;40.27;24.60;;;15.60;60.00;;;;;;5045531;28;20952;-59
2024/03/05 07:36:46;;;;;;;40.57;24.87;;;15.60;60.40;;;;;;5035338;28;20747;-59
2024/03/05 07:39:12;;;;;;;42.93;25.23;;;15.60;60.20;;;;;;5044078;28;20526;-60
2024/03/05 07:41:41;;;;;;;41.20;25.70;;;15.70;60.40;;;;;;5052001;28;20541;-59
2024/03/05 07:44:07;;;;;;;41.13;25.87;;;15.70;60.30;;;;;;5040962;28;20746;-57
2024/03/05 07:46:33;;;;;;;40.67;26.33;;;15.70;60.00;;;;;;5046100;28;20467;-61
2024/03/05 07:48:59;;;;;;;42.40;25.63;;;15.80;59.90;;;;;;5046725;28;20191;-61
2024/03/05 07:51:24;;;;;;;42.97;24.77;;;15.80;59.80;;;;;;5043237;28;20447;-61
2024/03/05 07:53:50;;;;;;;36.30;23.03;;;15.80;59.50;;;;;;5049455;28;20189;-60
2024/03/05 07:56:15;;;;;;;41.13;25.10;;;15.90;59.60;;;;;;5043409;28;20205;-60
2024/03/05 07:58:41;;;;;;;38.40;24.57;;;15.90;59.50;;;;;;5054270;28;20228;-61
2024/03/05 08:01:07;;;;;;;39.07;23.53;;;15.90;59.40;;;;;;5060899;28;20757;-59
2024/03/05 08:03:33;;;;;;;40.63;24.63;;;15.90;59.40;;;;;;5056105;28;20185;-60
2024/03/05 08:05:59;;;;;;;38.00;24.07;;;15.90;59.20;;;;;;5045880;28;20427;-61
2024/03/05 08:08:25;;;;;;;42.70;24.30;;;15.90;59.20;;;;;;5053322;28;20998;-61
2024/03/05 08:10:51;;;;;;;40.83;24.77;;;15.90;59.30;;;;;;5055845;28;20250;-61
2024/03/05 08:13:19;;;;;;;41.30;25.47;;;16.00;59.30;;;;;;5050685;28;20886;-61
2024/03/05 08:15:44;;;;;;;43.97;25.67;;;16.00;59.20;;;;;;5048140;28;20181;-59
2024/03/05 08:18:12;;;;;;;39.43;25.87;;;15.90;59.10;;;;;;5055397;28;20886;-60
2024/03/05 08:20:38;;;;;;;43.90;27.07;;;15.90;59.50;;;;;;5058460;28;20193;-60
2024/03/05 08:23:04;;;;;;;41.70;25.10;;;15.90;59.70;;;;;;5049219;28;20427;-59
2024/03/05 08:25:29;;;;;;;46.07;26.90;;;15.90;59.80;;;;;;5053027;28;20185;-61
2024/03/05 08:27:58;;;;;;;40.27;25.93;;;15.90;59.90;;;;;;5054059;28;20204;-61
2024/03/05 08:30:29;;;;;;;42.33;24.87;;;15.90;59.80;;;;;;5055884;28;20192;-59
2024/03/05 08:32:55;;;;;;;39.60;25.80;;;15.90;60.00;;;;;;5055753;28;20438;-60
2024/03/05 08:35:22;;;;;;;41.00;25.13;;;15.90;60.30;;;;;;5046766;28;21344;-61
2024/03/05 08:37:48;;;;;;;40.60;25.00;;;15.90;60.50;;;;;;5056194;28;20505;-60
2024/03/05 08:40:16;;;;;;;43.33;25.57;;;15.80;60.60;;;;;;5048254;28;20498;-60
2024/03/05 08:42:46;;;;;;;40.13;25.20;;;15.80;60.90;;;;;;5053005;28;20455;-60
2024/03/05 08:45:13;;;;;;;37.63;23.87;;;15.80;61.00;;;;;;5043356;28;20542;-61
2024/03/05 08:47:40;;;;;;;39.17;23.83;;;15.80;61.20;;;;;;5046890;28;20450;-60
2024/03/05 08:50:06;;;;;;;38.63;25.00;;;15.80;61.30;;;;;;5053772;28;20438;-61
2024/03/05 08:52:32;;;;;;;40.13;25.10;;;15.80;61.20;;;;;;5044115;28;20443;-59
2024/03/05 08:54:58;;;;;;;37.33;24.80;;;15.80;61.40;;;;;;5052277;28;20434;-61
2024/03/05 08:57:25;;;;;;;40.03;25.30;;;15.80;61.50;;;;;;5052877;28;20282;-60
2024/03/05 08:59:54;;;;;;;42.37;24.93;;;15.70;61.70;;;;;;5058995;28;20565;-61
2024/03/05 09:02:20;;;;;;;38.00;24.43;;;15.70;61.80;;;;;;5051070;28;20573;-59
2024/03/05 09:04:45;;;;;;;42.53;26.17;;;15.80;61.80;;;;;;5055599;28;20534;-59
2024/03/05 09:07:11;;;;;;;38.37;24.10;;;15.70;61.80;;;;;;5047417;28;20646;-61
2024/03/05 09:09:37;;;;;;;35.37;21.07;;;15.70;61.90;;;;;;5048944;28;20209;-61
2024/03/05 09:12:02;;;;;;;29.30;19.40;;;15.60;62.00;;;;;;5050287;28;20196;-59
2024/03/05 09:14:28;;;;;;;18.47;12.60;;;15.60;61.90;;;;;;5050237;28;20181;-59
2024/03/05 09:16:54;;;;;;;19.73;11.93;;;15.40;61.10;;;;;;5044730;28;20253;-61
2024/03/05 09:19:21;;;;;;;16.07;10.43;;;15.40;60.80;;;;;;5047898;28;20195;-62
2024/03/05 09:21:51;;;;;;;12.20;8.70;;;15.30;60.20;;;;;;5048734;28;20189;-58
2024/03/05 09:24:16;;;;;;;10.00;7.47;;;15.20;60.20;;;;;;5051989;28;20438;-60
2024/03/05 09:26:42;;;;;;;10.47;7.80;;;15.10;60.40;;;;;;5046560;28;20461;-61
2024/03/05 09:29:08;;;;;;;12.83;8.87;;;14.90;60.50;;;;;;5045817;28;20177;-60
2024/03/05 09:31:34;;;;;;;12.87;8.53;;;14.80;60.90;;;;;;5054982;28;21060;-62
2024/03/05 09:34:00;;;;;;;10.83;7.73;;;14.80;61.10;;;;;;5054421;28;20280;-62
2024/03/05 09:36:26;;;;;;;14.50;7.90;;;14.80;61.30;;;;;;5049333;28;20201;-60
2024/03/05 09:38:52;;;;;;;11.93;8.33;;;14.80;61.40;;;;;;5045019;28;20200;-61
2024/03/05 09:41:18;;;;;;;12.80;8.90;;;14.80;61.10;;;;;;5055666;28;20531;-61
2024/03/05 09:43:45;;;;;;;12.00;8.20;;;14.90;61.40;;;;;;5051815;28;20431;-61
2024/03/05 09:46:14;;;;;;;11.67;7.37;;;14.90;61.20;;;;;;5050972;28;20485;-61
2024/03/05 09:48:39;;;;;;;11.97;8.50;;;15.00;61.40;;;;;;5044345;28;20520;-61
2024/03/05 09:51:15;;;;;;;15.60;10.70;;;15.00;61.40;;;;;;5049786;28;20918;-61
2024/03/05 09:53:40;;;;;;;13.27;9.50;;;15.00;61.50;;;;;;5048800;28;20652;-61
2024/03/05 09:56:07;;;;;;;11.30;8.87;;;15.00;61.60;;;;;;5051335;28;20494;-61
2024/03/05 09:58:38;;;;;;;14.63;9.93;;;15.00;61.70;;;;;;5039981;28;20303;-61
2024/03/05 10:01:06;;;;;;;11.00;8.13;;;15.00;62.00;;;;;;5051189;28;20461;-60
2024/03/05 10:03:35;;;;;;;13.70;8.70;;;15.00;62.30;;;;;;5037061;28;20443;-59
2024/03/05 10:06:02;;;;;;;12.83;9.83;;;15.00;62.60;;;;;;5043843;28;20434;-60
2024/03/05 10:08:28;;;;;;;13.23;8.93;;;14.80;62.80;;;;;;5043067;28;20558;-62
2024/03/05 10:11:02;;;;;;;12.77;9.17;;;14.90;62.80;;;;;;5040260;28;20545;-61
2024/03/05 10:13:31;;;;;;;11.60;8.80;;;14.80;63.10;;;;;;5042343;28;20592;-60
2024/03/05 10:16:17;;;;;;;12.33;9.33;;;14.60;63.50;;;;;;5046271;28;20819;-61
2024/03/05 10:18:44;;;;;;;15.57;10.50;;;14.60;64.10;;;;;;5054099;28;20536;-61
2024/03/05 10:21:20;;;;;;;14.60;9.43;;;14.50;64.50;;;;;;5059517;28;20786;-59
2024/03/05 10:23:47;;;;;;;13.40;10.37;;;14.70;65.00;;;;;;5046673;28;20469;-61
2024/03/05 10:26:30;;;;;;;13.00;9.87;;;14.70;64.80;;;;;;5052654;28;20504;-61
2024/03/05 10:29:09;;;;;;;13.60;9.53;;;14.80;64.80;;;;;;5051733;28;20419;-61
2024/03/05 10:31:40;;;;;;;14.17;9.47;;;14.80;64.80;;;;;;5046183;28;20589;-61
2024/03/05 10:34:09;;;;;;;10.83;8.87;;;14.90;64.30;;;;;;5058159;28;20580;-60
2024/03/05 10:36:38;;;;;;;13.20;10.23;;;14.90;64.10;;;;;;5051738;28;20589;-61
2024/03/05 10:39:05;;;;;;;11.07;9.13;;;14.80;64.30;;;;;;5046973;28;20435;-61
2024/03/05 10:41:38;;;;;;;11.63;9.73;;;14.80;63.80;;;;;;5054916;28;20438;-60
2024/03/05 10:44:06;;;;;;;12.57;10.50;;;14.90;63.80;;;;;;5054600;28;20430;-60
2024/03/05 10:46:34;;;;;;;13.33;9.47;;;14.90;64.10;;;;;;5053817;28;20446;-61
2024/03/05 10:49:01;;;;;;;12.27;10.23;;;14.90;64.10;;;;;;5058542;28;20462;-60
2024/03/05 10:51:35;;;;;;;12.83;10.00;;;14.90;64.40;;;;;;5051837;28;20533;-61
2024/03/05 10:54:02;;;;;;;12.00;10.10;;;14.90;64.60;;;;;;5043460;28;20446;-60
2024/03/05 10:56:32;;;;;;;17.30;10.00;;;14.90;64.70;;;;;;5049937;28;20485;-60
2024/03/05 11:01:44;;;;;;;12.27;10.07;;;15.00;64.90;;;;;;5052112;28;20541;-60
2024/03/05 11:04:20;;;;;;;13.60;11.07;;;15.00;64.50;;;;;;5054217;28;20469;-59
2024/03/05 11:06:52;;;;;;;12.90;10.23;;;15.00;64.40;;;;;;5058495;28;20804;-60
2024/03/05 11:09:22;;;;;;;11.97;9.67;;;15.00;64.20;;;;;;5045749;28;20455;-60
2024/03/05 11:12:00;;;;;;;15.50;10.40;;;15.00;64.20;;;;;;5057004;28;20453;-60
2024/03/05 11:14:28;;;;;;;10.17;8.90;;;15.00;64.10;;;;;;5061149;28;20414;-60
2024/03/05 11:17:03;;;;;;;16.47;8.90;;;14.90;64.00;;;;;;5051250;28;20486;-61
2024/03/05 11:19:31;;;;;;;13.80;8.30;;;14.90;63.90;;;;;;5052755;28;20787;-59
2024/03/05 11:21:58;;;;;;;10.10;8.53;;;14.70;63.70;;;;;;5056746;28;20927;-61
2024/03/05 11:24:24;;;;;;;9.33;7.77;;;14.70;63.70;;;;;;5055894;28;20427;-60
2024/03/05 11:27:01;;;;;;;8.07;7.07;;;14.70;63.40;;;;;;5055104;28;20450;-60
2024/03/05 11:29:30;;;;;;;7.83;7.00;;;14.50;63.50;;;;;;5059746;28;20216;-60
2024/03/05 11:31:58;;;;;;;8.70;6.87;;;14.40;63.40;;;;;;5051958;28;20526;-61
2024/03/05 11:34:27;;;;;;;13.77;6.87;;;14.20;63.50;;;;;;5056175;28;20446;-61
2024/03/05 11:37:07;;;;;;;8.20;6.63;;;14.10;64.30;;;;;;5055776;28;20528;-61
2024/03/05 11:39:35;;;;;;;8.93;7.50;;;14.20;64.30;;;;;;5049267;28;20443;-62
2024/03/05 11:42:00;;;;;;;7.53;6.53;;;14.20;64.20;;;;;;5051035;28;20438;-62
2024/03/05 11:44:46;;;;;;;6.53;5.93;;;14.10;64.20;;;;;;5049802;28;20518;-62
2024/03/05 11:47:19;;;;;;;6.10;5.50;;;14.00;64.00;;;;;;5046636;28;20694;-61
2024/03/05 11:49:44;;;;;;;6.43;5.40;;;14.00;65.20;;;;;;5052702;28;20471;-59
2024/03/05 11:52:10;;;;;;;6.37;5.67;;;13.90;63.50;;;;;;5049465;28;20800;-61
2024/03/05 11:54:36;;;;;;;5.43;4.93;;;13.90;63.80;;;;;;5050657;28;20177;-62
2024/03/05 11:57:03;;;;;;;7.37;5.73;;;14.00;63.90;;;;;;5053872;28;20225;-62
2024/03/05 11:59:36;;;;;;;6.47;5.87;;;14.10;63.70;;;;;;5049255;28;20184;-60
2024/03/05 12:02:09;;;;;;;6.90;6.20;;;14.10;63.70;;;;;;5052186;28;20478;-61
2024/03/05 12:04:36;;;;;;;6.77;5.27;;;14.20;64.50;;;;;;5049755;28;20442;-60
2024/03/05 12:07:06;;;;;;;6.70;6.00;;;14.30;63.30;;;;;;5050351;28;20809;-61
2024/03/05 12:09:36;;;;;;;6.00;5.40;;;14.40;63.10;;;;;;5040408;28;20455;-60
2024/03/05 12:12:10;;;;;;;7.77;6.20;;;14.50;63.40;;;;;;5056212;28;20463;-60
2024/03/05 12:14:55;;;;;;;6.70;6.00;;;14.50;63.30;;;;;;5057806;28;20841;-62
2024/03/05 12:17:24;;;;;;;5.90;5.30;;;14.50;63.70;;;;;;5055045;28;20487;-59
2024/03/05 12:20:07;;;;;;;6.40;5.67;;;14.40;63.20;;;;;;5063540;28;20506;-62
2024/03/05 12:22:36;;;;;;;6.00;5.40;;;14.30;63.90;;;;;;5054653;28;20481;-61
2024/03/05 12:25:01;;;;;;;5.63;5.13;;;14.10;62.90;;;;;;5046943;28;20436;-61
2024/03/05 12:27:27;;;;;;;5.27;4.87;;;13.90;62.70;;;;;;5049279;28;20464;-60
2024/03/05 12:29:53;;;;;;;5.20;4.33;;;14.00;63.20;;;;;;5056000;28;20207;-62
2024/03/05 12:32:20;;;;;;;14.30;12.80;;;14.00;62.70;;;;;;5053717;28;20192;-60
2024/03/05 12:34:49;;;;;;;7.73;7.00;;;13.90;62.80;;;;;;5049193;28;20809;-60
2024/03/05 12:37:16;;;;;;;4.30;3.67;;;14.00;62.60;;;;;;5051376;28;20481;-62
2024/03/05 12:39:42;;;;;;;6.23;4.93;;;13.90;62.00;;;;;;5055025;28;20549;-61